Hauptseite
METAR-TAF:

METAR-TAF

Flughäfen :

Flughafen Berlin-Tegel

Berlin, Deutschland

Breite: 52-34N, Länge: 013-19E, Höhe: 37 m

Beobachtung

Neuester Wetterbericht von vor 33 Minuten, um 20:50 UTC
Wind 2 kt aus West/Nordwest
Temperatur 4°C
Luftfeuchtigkeit 65%
Luftdruck 1018 hPa
Sichtweite 10 km oder mehr
keine Wolken unter 1500 m und keine Kumulonimbus oder Gewitterwolken

METAR: EDDT 032050Z 30002KT CAVOK 04/M02 Q1018 NOSIG

Zeit: 23:23 (21:23 UTC)

Prognose

Neuester Wetterbericht von vor 4 Stunden und 23 Minuten, um 17:00 UTC
Gültige Prognose vom 03 um 18 UTC bis 04 um 18 UTC
Wind 9 kt aus West/Nordwest
Sichtweite 10 km oder mehr
keine Wolken unter 1500 m und keine Kumulonimbus oder Gewitterwolken
Übergehend zu
vom 03 um 18 UTC bis 03 um 20 UTC
Wind 4 kt aus West

TAF: EDDT 031700Z 0318/0418 29009KT CAVOK BECMG 0318/0320 27004KT

Wetterbeobachtungen und Prognosen von mehr als 4000 Flughäfen (METAR und TAF Bericht).

Die verfügbaren Stationen werden durch gelbe und rote Markierungen auf der Karte dargestellt.

Führen Sie die Maus auf sie, um den Namen der Station zu sehen.

Darauf klicken, um die Beobachtung von Wetterbeobachtungen und Prognosen zu sehen.

Um die Karte zu ändern : klicken Sie auf den grünen Tasten mit einem schwarzen Kreuz Zum Vergrößern, auf den grünen Button mit einem Gedankenstrich zu verkleinern, oder auf die grünen Pfeile für benachbarte Karten.


METAR-TAF: